Time;durP1;ratioP1;P1;durP2;ratioP2;P2;SDS_P1;SDS_P2;PMS_P1;PMS_P2;Temp;Humidity;BMP_temperature;BMP_pressure;BME280_temperature;BME280_humidity;BME280_pressure;Samples;Min_cycle;Max_cycle;Signal;HPM_P1;HPM_P2
2022/08/07 00:01:18;;;;;;;0.10;0.10;;;15.10;99.90;226.50;231333.00;;;;5053413;28;20201;-75
2022/08/07 00:04:07;;;;;;;0.10;0.10;;;15.10;99.90;226.50;231333.00;;;;5048643;28;20227;-74
2022/08/07 00:06:38;;;;;;;0.00;0.00;;;15.30;99.90;226.50;231333.00;;;;5052544;28;20534;-75
2022/08/07 00:09:18;;;;;;;0.10;0.10;;;15.40;99.90;226.50;231333.00;;;;5052185;28;20235;-75
2022/08/07 00:11:50;;;;;;;0.10;0.10;;;15.40;99.90;226.50;231333.00;;;;5044689;28;20233;-75
2022/08/07 00:14:29;;;;;;;0.10;0.10;;;15.50;99.90;226.50;231333.00;;;;5052197;28;20275;-75
2022/08/07 00:17:00;;;;;;;0.10;0.10;;;15.50;99.90;226.50;231333.00;;;;5053740;28;20202;-77
2022/08/07 00:19:30;;;;;;;0.00;0.00;;;15.50;99.90;226.50;231333.00;;;;5047950;28;20198;-76
2022/08/07 00:22:18;;;;;;;0.10;0.10;;;15.50;99.90;226.50;231333.00;;;;5062701;28;20243;-75
2022/08/07 00:25:02;;;;;;;0.10;0.10;;;15.50;99.90;226.50;231333.00;;;;5069170;28;20247;-75
2022/08/07 00:27:31;;;;;;;0.00;0.00;;;15.50;99.90;226.50;231333.00;;;;5045162;28;20223;-77
2022/08/07 00:30:22;;;;;;;0.10;0.10;;;15.40;99.90;226.50;231333.00;;;;5046451;28;20209;-77
2022/08/07 00:32:56;;;;;;;0.00;0.00;;;15.40;99.90;226.50;231333.00;;;;5050072;28;20226;-74
2022/08/07 00:35:26;;;;;;;0.10;0.10;;;15.40;99.90;226.50;231333.00;;;;5050616;28;20198;-71
2022/08/07 00:37:57;;;;;;;0.00;0.00;;;15.30;99.90;226.50;231333.00;;;;5051926;28;20630;-75
2022/08/07 00:40:27;;;;;;;0.00;0.00;;;14.70;99.90;226.50;231333.00;;;;5050854;28;20205;-77
2022/08/07 00:43:09;;;;;;;0.10;0.10;;;14.40;99.90;226.50;231333.00;;;;5056247;28;20214;-73
2022/08/07 00:45:59;;;;;;;0.10;0.10;;;14.40;99.90;226.50;231333.00;;;;5053569;28;20221;-74
2022/08/07 00:48:30;;;;;;;0.05;0.05;;;14.30;99.90;226.50;231333.00;;;;5055951;28;20264;-74
2022/08/07 00:51:01;;;;;;;0.10;0.10;;;14.30;99.90;226.50;231333.00;;;;5043903;28;20676;-74
2022/08/07 00:53:29;;;;;;;0.08;0.08;;;14.20;99.90;226.50;231333.00;;;;5053268;28;20253;-74
2022/08/07 00:56:06;;;;;;;0.10;0.10;;;14.10;99.90;226.50;231333.00;;;;5052667;28;20202;-73
2022/08/07 00:58:43;;;;;;;0.00;0.00;;;13.90;99.90;226.50;231333.00;;;;5045304;28;20210;-76
2022/08/07 01:01:17;;;;;;;0.10;0.10;;;14.00;99.90;226.50;231333.00;;;;5050692;28;20241;-74
2022/08/07 01:03:46;;;;;;;0.00;0.00;;;14.00;99.90;226.50;231333.00;;;;5058856;28;20279;-75
2022/08/07 01:06:28;;;;;;;0.10;0.10;;;14.10;99.90;226.50;231333.00;;;;5043707;28;20219;-74
2022/08/07 01:08:57;;;;;;;0.10;0.10;;;14.00;99.90;226.50;231333.00;;;;5049080;28;20241;-75
2022/08/07 01:11:29;;;;;;;0.10;0.10;;;14.00;99.90;226.50;231333.00;;;;5040335;28;20186;-75
2022/08/07 01:14:19;;;;;;;0.10;0.10;;;14.00;99.90;226.50;231333.00;;;;5053481;28;20214;-75
2022/08/07 01:16:58;;;;;;;0.10;0.10;;;14.00;99.90;226.50;231333.00;;;;5043129;28;20665;-74
2022/08/07 01:19:30;;;;;;;0.10;0.10;;;13.90;99.90;226.50;231333.00;;;;5050129;28;20198;-73
2022/08/07 01:22:02;;;;;;;0.10;0.10;;;13.90;99.90;226.50;231333.00;;;;5049782;28;20202;-72
2022/08/07 01:24:40;;;;;;;0.10;0.10;;;13.80;99.90;226.50;231333.00;;;;5051187;28;20222;-73
2022/08/07 01:27:09;;;;;;;0.10;0.10;;;13.70;99.90;226.50;231333.00;;;;5049331;28;20712;-73
2022/08/07 01:29:47;;;;;;;0.10;0.10;;;13.70;99.90;226.50;231333.00;;;;5041921;28;20234;-75
2022/08/07 01:32:18;;;;;;;0.00;0.00;;;13.60;99.90;226.50;231333.00;;;;5050076;28;20206;-75
2022/08/07 01:34:51;;;;;;;0.10;0.10;;;13.60;99.90;226.50;231333.00;;;;5048464;28;20772;-75
2022/08/07 01:37:21;;;;;;;0.10;0.10;;;13.50;99.90;226.50;231333.00;;;;5051584;28;20210;-74
2022/08/07 01:39:53;;;;;;;0.10;0.10;;;13.40;99.90;226.50;231333.00;;;;5057584;28;20205;-74
2022/08/07 01:42:32;;;;;;;0.10;0.10;;;13.30;99.90;226.50;231333.00;;;;5050369;28;20193;-74
2022/08/07 01:45:21;;;;;;;0.10;0.10;;;13.20;99.90;226.50;231333.00;;;;5057704;28;20186;-74
2022/08/07 01:48:05;;;;;;;0.10;0.10;;;13.20;99.90;226.50;231333.00;;;;5058182;28;20240;-73
2022/08/07 01:50:58;;;;;;;0.10;0.10;;;13.20;99.90;226.50;231333.00;;;;5058236;28;20229;-74
2022/08/07 01:53:51;;;;;;;0.10;0.10;;;13.20;99.90;226.50;231333.00;;;;5057992;28;20305;-74
2022/08/07 01:56:48;;;;;;;0.10;0.10;;;13.10;99.90;226.50;231333.00;;;;5060027;28;20229;-75
2022/08/07 01:59:26;;;;;;;0.10;0.10;;;13.20;99.90;226.50;231333.00;;;;5054431;28;20205;-75
2022/08/07 02:02:06;;;;;;;0.10;0.10;;;13.20;99.90;226.50;231333.00;;;;5056504;28;20687;-74
2022/08/07 02:04:44;;;;;;;0.10;0.10;;;13.20;99.90;226.50;231333.00;;;;5071265;28;20771;-74
2022/08/07 02:07:34;;;;;;;0.10;0.10;;;13.30;99.90;226.50;231333.00;;;;5054218;28;20222;-73
2022/08/07 02:10:39;;;;;;;0.10;0.10;;;13.30;99.90;226.50;231333.00;;;;5052964;28;20211;-75
2022/08/07 02:13:13;;;;;;;0.10;0.10;;;13.20;99.90;226.50;231333.00;;;;5052466;28;20705;-75
2022/08/07 02:15:51;;;;;;;0.00;0.00;;;13.20;99.90;226.50;231333.00;;;;5037370;28;20616;-73
2022/08/07 02:18:22;;;;;;;0.03;0.03;;;13.10;99.90;226.50;231333.00;;;;5048245;28;20288;-72
2022/08/07 02:20:59;;;;;;;0.10;0.10;;;13.20;99.90;226.50;231333.00;;;;5055825;28;20194;-71
2022/08/07 02:23:37;;;;;;;0.10;0.10;;;13.10;99.90;226.50;231333.00;;;;5064442;28;20268;-72
2022/08/07 02:26:09;;;;;;;0.10;0.10;;;13.00;99.90;226.50;231333.00;;;;5057385;28;20306;-73
2022/08/07 02:28:58;;;;;;;0.10;0.10;;;12.90;99.90;226.50;231333.00;;;;5053988;28;20186;-73
2022/08/07 02:31:29;;;;;;;0.10;0.10;;;12.80;99.90;226.50;231333.00;;;;5052180;28;20191;-74
2022/08/07 02:34:01;;;;;;;0.10;0.10;;;12.70;99.90;226.50;231333.00;;;;5046100;28;20270;-74
2022/08/07 02:36:51;;;;;;;0.10;0.10;;;12.70;99.90;226.50;231333.00;;;;5054016;28;20194;-74
2022/08/07 02:39:21;;;;;;;0.10;0.10;;;12.70;99.90;226.50;231333.00;;;;5035963;28;20233;-75
2022/08/07 02:42:15;;;;;;;0.10;0.10;;;12.80;99.90;226.50;231333.00;;;;5046770;28;20583;-75
2022/08/07 02:44:51;;;;;;;0.10;0.10;;;12.80;99.90;226.50;231333.00;;;;5068261;28;20661;-75
2022/08/07 02:47:22;;;;;;;0.10;0.10;;;12.80;99.90;226.50;231333.00;;;;5038407;28;20253;-73
2022/08/07 02:49:59;;;;;;;0.10;0.10;;;12.60;99.90;226.50;231333.00;;;;5045214;28;20210;-74
2022/08/07 02:52:37;;;;;;;0.10;0.10;;;12.50;99.90;226.50;231333.00;;;;5050218;28;20202;-74
2022/08/07 02:55:21;;;;;;;0.10;0.10;;;12.40;99.90;226.50;231333.00;;;;5038334;28;20197;-74
2022/08/07 02:58:15;;;;;;;0.10;0.10;;;12.40;99.90;226.50;231333.00;;;;5050009;28;20676;-73
2022/08/07 03:00:54;;;;;;;0.10;0.10;;;12.40;99.90;226.50;231333.00;;;;5035159;28;20211;-76
2022/08/07 03:03:26;;;;;;;0.10;0.10;;;12.40;99.90;226.50;231333.00;;;;5060497;28;20320;-76
2022/08/07 03:06:18;;;;;;;0.10;0.10;;;12.30;99.90;226.50;231333.00;;;;5057789;28;20193;-76
2022/08/07 03:09:01;;;;;;;0.10;0.10;;;12.20;99.90;226.50;231333.00;;;;5050174;28;20227;-76
2022/08/07 03:11:32;;;;;;;0.10;0.10;;;12.30;99.90;226.50;231333.00;;;;5052654;28;20198;-76
2022/08/07 03:14:09;;;;;;;0.10;0.10;;;12.30;99.90;226.50;231333.00;;;;5045484;28;20685;-75
2022/08/07 03:16:39;;;;;;;0.10;0.10;;;12.20;99.90;226.50;231333.00;;;;5050859;28;20728;-75
2022/08/07 03:19:10;;;;;;;0.10;0.10;;;12.10;99.90;226.50;231333.00;;;;5051802;28;20727;-74
2022/08/07 03:21:40;;;;;;;0.10;0.10;;;12.10;99.90;226.50;231333.00;;;;5052106;28;20193;-74
2022/08/07 03:24:19;;;;;;;0.10;0.10;;;12.00;99.90;226.50;231333.00;;;;5068733;28;20217;-75
2022/08/07 03:27:01;;;;;;;0.10;0.10;;;12.10;99.90;226.50;231333.00;;;;5052038;28;20198;-73
2022/08/07 03:29:46;;;;;;;0.10;0.10;;;12.10;99.90;226.50;231333.00;;;;5051276;28;20198;-72
2022/08/07 03:32:28;;;;;;;0.10;0.10;;;12.20;99.90;226.50;231333.00;;;;5051000;28;20198;-74
2022/08/07 03:35:02;;;;;;;0.10;0.10;;;12.20;99.90;226.50;231333.00;;;;5039737;28;20309;-75
2022/08/07 03:37:55;;;;;;;0.10;0.10;;;12.00;99.90;226.50;231333.00;;;;5041849;28;20198;-74
2022/08/07 03:40:29;;;;;;;0.10;0.10;;;11.70;99.90;226.50;231333.00;;;;5045457;28;20574;-74
2022/08/07 03:43:05;;;;;;;0.00;0.00;;;11.70;99.90;226.50;231333.00;;;;5036682;28;20321;-75
2022/08/07 03:45:46;;;;;;;0.10;0.10;;;11.70;99.90;226.50;231333.00;;;;5042579;28;20194;-73
2022/08/07 03:48:20;;;;;;;0.10;0.10;;;11.70;99.90;226.50;231333.00;;;;5050983;28;20232;-73
2022/08/07 03:50:50;;;;;;;0.10;0.10;;;11.70;99.90;226.50;231333.00;;;;5048522;28;20229;-74
2022/08/07 03:53:29;;;;;;;0.10;0.10;;;11.80;99.90;226.50;231333.00;;;;5034282;28;20235;-74
2022/08/07 03:56:22;;;;;;;0.10;0.10;;;11.80;99.90;226.50;231333.00;;;;5051426;28;20195;-73
2022/08/07 03:59:06;;;;;;;0.10;0.10;;;11.80;99.90;226.50;231333.00;;;;5067486;28;20208;-73
2022/08/07 04:01:46;;;;;;;0.10;0.10;;;11.60;99.90;226.50;231333.00;;;;5051181;28;20285;-73
2022/08/07 04:04:19;;;;;;;0.10;0.10;;;11.60;99.90;226.50;231333.00;;;;5062466;28;20224;-73
2022/08/07 04:06:53;;;;;;;0.10;0.10;;;11.60;99.90;226.50;231333.00;;;;5040241;28;20281;-73
2022/08/07 04:09:24;;;;;;;0.10;0.10;;;11.70;99.90;226.50;231333.00;;;;5048982;28;20775;-73
2022/08/07 04:12:12;;;;;;;0.10;0.10;;;11.70;99.90;226.50;231333.00;;;;5051267;28;20221;-72
2022/08/07 04:14:58;;;;;;;0.10;0.10;;;11.80;99.90;226.50;231333.00;;;;5050766;28;20218;-72
2022/08/07 04:17:30;;;;;;;0.10;0.10;;;11.80;99.90;226.50;231333.00;;;;5050897;28;20226;-73
2022/08/07 04:20:18;;;;;;;0.10;0.10;;;11.80;99.90;226.50;231333.00;;;;5069684;28;20282;-71
2022/08/07 04:22:49;;;;;;;0.10;0.10;;;11.70;99.90;226.50;231333.00;;;;5065991;28;20230;-72
2022/08/07 04:25:23;;;;;;;0.10;0.10;;;11.70;99.90;226.50;231333.00;;;;5041366;28;20221;-72
2022/08/07 04:27:56;;;;;;;0.10;0.10;;;11.70;99.90;226.50;231333.00;;;;5040912;28;20632;-74
2022/08/07 04:30:29;;;;;;;0.10;0.10;;;11.60;99.90;226.50;231333.00;;;;5047310;28;20190;-73
2022/08/07 04:33:24;;;;;;;0.10;0.10;;;11.50;99.90;226.50;231333.00;;;;5050538;28;20280;-74
2022/08/07 04:35:54;;;;;;;0.10;0.10;;;11.20;99.90;226.50;231333.00;;;;5051026;28;20201;-73
2022/08/07 04:38:28;;;;;;;0.10;0.10;;;11.20;99.90;226.50;231333.00;;;;5049063;28;20696;-73
2022/08/07 04:40:58;;;;;;;0.10;0.10;;;11.30;99.90;226.50;231333.00;;;;5047792;28;20195;-73
2022/08/07 04:43:38;;;;;;;0.10;0.10;;;11.40;99.90;226.50;231333.00;;;;5052279;28;20256;-72
2022/08/07 04:46:37;;;;;;;0.10;0.10;;;11.50;99.90;226.50;231333.00;;;;5048916;28;20248;-72
2022/08/07 04:49:39;;;;;;;0.10;0.10;;;11.60;99.90;226.50;231333.00;;;;5031335;28;20602;-72
2022/08/07 04:52:21;;;;;;;0.10;0.10;;;11.70;99.90;226.50;231333.00;;;;5050851;28;20204;-72
2022/08/07 04:55:02;;;;;;;0.10;0.10;;;11.70;99.90;226.50;231333.00;;;;5050355;28;20201;-72
2022/08/07 04:57:59;;;;;;;0.10;0.10;;;11.80;99.90;226.50;231333.00;;;;5049944;28;20194;-73
2022/08/07 05:00:55;;;;;;;0.10;0.10;;;11.80;99.90;226.50;231333.00;;;;5054771;28;20201;-75
2022/08/07 05:03:33;;;;;;;0.10;0.10;;;11.90;99.90;226.50;231333.00;;;;5052586;28;20222;-73
2022/08/07 05:06:31;;;;;;;0.10;0.10;;;12.00;99.90;226.50;231333.00;;;;5048443;28;20323;-73
2022/08/07 05:09:27;;;;;;;0.10;0.10;;;12.10;99.90;226.50;231333.00;;;;5051395;28;20237;-72
2022/08/07 05:12:23;;;;;;;0.10;0.10;;;12.10;99.90;226.50;231333.00;;;;5049403;28;20292;-72
2022/08/07 05:15:14;;;;;;;0.10;0.10;;;12.00;99.90;226.50;231333.00;;;;5050202;28;20214;-73
2022/08/07 05:17:58;;;;;;;0.10;0.10;;;11.90;99.90;226.50;231333.00;;;;5037990;28;20574;-71
2022/08/07 05:20:37;;;;;;;0.10;0.10;;;12.00;99.90;226.50;231333.00;;;;5050375;28;20605;-73
2022/08/07 05:23:12;;;;;;;0.10;0.10;;;12.00;99.90;226.50;231333.00;;;;5049701;28;20247;-72
2022/08/07 05:25:46;;;;;;;0.10;0.10;;;12.00;99.90;226.50;231333.00;;;;5049450;28;20626;-73
2022/08/07 05:28:37;;;;;;;0.10;0.10;;;12.10;99.90;226.50;231333.00;;;;5048315;28;20210;-73
2022/08/07 05:31:12;;;;;;;0.10;0.10;;;12.10;99.90;226.50;231333.00;;;;5040298;28;20697;-73
2022/08/07 05:33:45;;;;;;;0.08;0.08;;;12.30;99.90;226.50;231333.00;;;;5062447;28;20222;-73
2022/08/07 05:36:34;;;;;;;0.10;0.10;;;12.40;99.90;226.50;231333.00;;;;5048359;28;20199;-74
2022/08/07 05:39:12;;;;;;;0.10;0.10;;;12.40;99.90;226.50;231333.00;;;;5045999;28;20201;-75
2022/08/07 05:42:03;;;;;;;0.10;0.10;;;12.60;99.90;226.50;231333.00;;;;5046613;28;20244;-75
2022/08/07 05:44:39;;;;;;;0.10;0.10;;;12.70;99.90;226.50;231333.00;;;;5045182;28;20218;-74
2022/08/07 05:47:27;;;;;;;0.10;0.10;;;12.80;99.90;226.50;231333.00;;;;5048987;28;20194;-73
2022/08/07 05:50:17;;;;;;;0.10;0.10;;;12.90;99.90;226.50;231333.00;;;;5048180;28;20210;-74
2022/08/07 05:52:46;;;;;;;0.10;0.10;;;13.00;99.90;226.50;231333.00;;;;5046396;28;20241;-74
2022/08/07 05:55:16;;;;;;;0.10;0.10;;;13.00;99.90;226.50;231333.00;;;;5048568;28;20217;-74
2022/08/07 05:57:47;;;;;;;0.10;0.10;;;13.10;99.90;226.50;231333.00;;;;5048103;28;20288;-73
2022/08/07 06:00:18;;;;;;;0.00;0.00;;;13.10;99.90;226.50;231333.00;;;;5047744;28;20202;-73
2022/08/07 06:02:58;;;;;;;0.10;0.10;;;13.20;99.90;226.50;231333.00;;;;5049388;28;20213;-73
2022/08/07 06:05:30;;;;;;;0.10;0.10;;;13.20;99.90;226.50;231333.00;;;;5038058;28;20252;-72
2022/08/07 06:08:05;;;;;;;0.10;0.10;;;13.20;99.90;226.50;231333.00;;;;5046157;28;20190;-74
2022/08/07 06:10:54;;;;;;;0.10;0.10;;;13.30;99.90;226.50;231333.00;;;;5048934;28;20558;-73
2022/08/07 06:13:24;;;;;;;0.10;0.10;;;13.30;99.90;226.50;231333.00;;;;5049086;28;20222;-73
2022/08/07 06:16:15;;;;;;;0.10;0.10;;;13.40;99.90;226.50;231333.00;;;;5048896;28;20666;-73
2022/08/07 06:18:45;;;;;;;0.00;0.00;;;13.50;99.90;226.50;231333.00;;;;5040295;28;20256;-73
2022/08/07 06:21:25;;;;;;;0.10;0.10;;;13.60;99.90;226.50;231333.00;;;;5047348;28;20205;-73
2022/08/07 06:24:14;;;;;;;0.10;0.10;;;13.70;99.90;226.50;231333.00;;;;5050215;28;20210;-71
2022/08/07 06:27:04;;;;;;;0.10;0.10;;;13.80;99.90;226.50;231333.00;;;;5032839;28;20206;-71
2022/08/07 06:29:34;;;;;;;0.10;0.10;;;13.90;99.90;226.50;231333.00;;;;5044223;28;20320;-71
2022/08/07 06:32:07;;;;;;;0.10;0.10;;;14.00;99.90;226.50;231333.00;;;;5049444;28;20252;-71
2022/08/07 06:34:35;;;;;;;0.10;0.10;;;14.10;99.90;226.50;231333.00;;;;5045298;28;20686;-71
2022/08/07 06:37:08;;;;;;;0.10;0.10;;;14.30;99.90;226.50;231333.00;;;;5051880;28;20273;-71
2022/08/07 06:39:38;;;;;;;0.10;0.10;;;14.40;99.90;226.50;231333.00;;;;5057708;28;20265;-71
2022/08/07 06:42:36;;;;;;;0.00;0.00;;;14.50;99.90;226.50;231333.00;;;;5043043;28;20626;-71
2022/08/07 06:45:24;;;;;;;0.10;0.10;;;14.70;99.90;226.50;231333.00;;;;5053169;28;20282;-70
2022/08/07 06:47:57;;;;;;;0.10;0.10;;;14.80;99.90;226.50;231333.00;;;;5057577;28;20752;-71
2022/08/07 06:50:38;;;;;;;0.03;0.03;;;15.00;99.90;226.50;231333.00;;;;5041751;28;20223;-70
2022/08/07 06:53:13;;;;;;;0.10;0.10;;;15.20;99.90;226.50;231333.00;;;;5047618;28;20609;-70
2022/08/07 06:56:03;;;;;;;0.10;0.10;;;15.30;99.90;226.50;231333.00;;;;5048571;28;20640;-71
2022/08/07 06:58:40;;;;;;;0.00;0.00;;;15.40;99.90;226.50;231333.00;;;;5048975;28;20202;-71
2022/08/07 07:01:28;;;;;;;0.10;0.10;;;15.60;99.90;226.50;231333.00;;;;5052344;28;20202;-71
2022/08/07 07:04:11;;;;;;;0.00;0.00;;;15.80;99.90;226.50;231333.00;;;;5059059;28;20803;-71
2022/08/07 07:07:00;;;;;;;0.10;0.10;;;15.90;99.90;226.50;231333.00;;;;5047943;28;20259;-70
2022/08/07 07:09:37;;;;;;;0.00;0.00;;;16.10;99.90;226.50;231333.00;;;;5052169;28;20230;-70
2022/08/07 07:12:37;;;;;;;0.10;0.10;;;16.30;99.90;226.50;231333.00;;;;5052960;28;20195;-71
2022/08/07 07:15:25;;;;;;;0.10;0.10;;;16.50;99.90;226.50;231333.00;;;;5051919;28;20676;-71
2022/08/07 07:18:13;;;;;;;0.00;0.00;;;16.60;99.90;226.50;231333.00;;;;5050598;28;20236;-71
2022/08/07 07:21:10;;;;;;;0.10;0.10;;;16.80;99.90;226.50;231333.00;;;;5048020;28;20719;-71
2022/08/07 07:23:47;;;;;;;0.00;0.00;;;17.00;99.90;226.50;231333.00;;;;5052784;28;20314;-71
2022/08/07 07:26:38;;;;;;;0.10;0.10;;;17.30;99.90;226.50;231333.00;;;;5048003;28;20638;-71
2022/08/07 07:29:13;;;;;;;0.10;0.10;;;17.70;99.90;226.50;231333.00;;;;5048196;28;20733;-70
2022/08/07 07:32:07;;;;;;;0.00;0.00;;;17.80;99.90;226.50;231333.00;;;;5033757;28;20249;-72
2022/08/07 07:34:43;;;;;;;0.00;0.00;;;18.00;99.90;226.50;231333.00;;;;5046794;28;20217;-71
2022/08/07 07:37:14;;;;;;;0.00;0.00;;;18.10;99.90;226.50;231333.00;;;;5047162;28;20662;-71
2022/08/07 07:40:07;;;;;;;0.10;0.10;;;18.30;99.90;226.50;231333.00;;;;5051963;28;20710;-72
2022/08/07 07:42:44;;;;;;;0.00;0.00;;;18.40;99.90;226.50;231333.00;;;;5073454;28;20212;-72
2022/08/07 07:45:21;;;;;;;0.00;0.00;;;18.50;99.90;226.50;231333.00;;;;5052505;28;20225;-71
2022/08/07 07:48:17;;;;;;;0.00;0.00;;;18.70;99.90;226.50;231333.00;;;;5041070;28;20199;-71
2022/08/07 07:51:04;;;;;;;0.00;0.00;;;18.80;99.90;226.50;231333.00;;;;5042425;28;20210;-71
2022/08/07 07:53:41;;;;;;;0.00;0.00;;;19.00;99.90;226.50;231333.00;;;;5048625;28;20225;-72
2022/08/07 07:56:22;;;;;;;0.00;0.00;;;19.10;99.90;226.50;231333.00;;;;5062638;28;20201;-71
2022/08/07 07:59:01;;;;;;;0.10;0.10;;;19.30;99.90;226.50;231333.00;;;;5056683;28;20195;-71
2022/08/07 08:01:31;;;;;;;0.00;0.00;;;19.40;99.90;226.50;231333.00;;;;5041494;28;20201;-71
2022/08/07 08:04:23;;;;;;;0.00;0.00;;;19.60;99.90;226.50;231333.00;;;;5044239;28;20215;-72
2022/08/07 08:06:55;;;;;;;0.00;0.00;;;19.80;99.90;226.50;231333.00;;;;5040658;28;20203;-71
2022/08/07 08:09:30;;;;;;;0.00;0.00;;;20.00;99.90;226.50;231333.00;;;;5051064;28;20824;-71
2022/08/07 08:12:19;;;;;;;0.00;0.00;;;20.10;99.90;226.50;231333.00;;;;5044805;28;20567;-71
2022/08/07 08:15:08;;;;;;;0.00;0.00;;;20.40;99.90;226.50;231333.00;;;;5052452;28;20191;-71
2022/08/07 08:17:37;;;;;;;0.00;0.00;;;20.60;99.30;226.50;231333.00;;;;5050023;28;20203;-71
2022/08/07 08:20:31;;;;;;;0.00;0.00;;;20.80;99.10;226.50;231333.00;;;;5055237;28;20198;-70
2022/08/07 08:28:42;;;;;;;0.00;0.00;;;21.10;98.60;226.50;231333.00;;;;5051770;28;20198;-70
2022/08/07 08:31:21;;;;;;;0.00;0.00;;;21.30;98.70;226.50;231333.00;;;;5051550;28;20225;-70
2022/08/07 08:34:01;;;;;;;0.00;0.00;;;21.50;98.30;226.50;231333.00;;;;5039596;28;20210;-70
2022/08/07 08:36:35;;;;;;;0.00;0.00;;;21.60;97.60;226.50;231333.00;;;;5057507;28;20228;-70
2022/08/07 08:39:09;;;;;;;0.00;0.00;;;21.50;97.30;226.50;231333.00;;;;5051737;28;20197;-71
2022/08/07 08:41:43;;;;;;;0.00;0.00;;;21.40;97.00;226.50;231333.00;;;;5052173;28;20732;-70
2022/08/07 08:44:35;;;;;;;0.00;0.00;;;21.60;97.30;226.50;231333.00;;;;5051673;28;20736;-70
2022/08/07 08:47:24;;;;;;;0.00;0.00;;;21.90;95.70;226.50;231333.00;;;;5031964;28;20193;-72
2022/08/07 08:50:01;;;;;;;0.00;0.00;;;22.10;95.10;226.50;231333.00;;;;5043419;28;20205;-71
2022/08/07 08:52:39;;;;;;;0.00;0.00;;;22.30;94.70;226.50;231333.00;;;;5049068;28;20245;-71
2022/08/07 08:55:29;;;;;;;0.00;0.00;;;22.50;93.40;226.50;231333.00;;;;5049635;28;20218;-71
2022/08/07 08:58:31;;;;;;;0.00;0.00;;;22.70;92.90;226.50;231333.00;;;;5050938;28;20256;-71
2022/08/07 09:01:10;;;;;;;0.00;0.00;;;22.70;93.30;226.50;231333.00;;;;5047239;28;20204;-71
2022/08/07 09:03:55;;;;;;;0.00;0.00;;;23.00;92.40;226.50;231333.00;;;;5055261;28;20210;-71
2022/08/07 09:06:42;;;;;;;0.00;0.00;;;23.00;91.80;226.50;231333.00;;;;5048566;28;20213;-72
2022/08/07 09:09:46;;;;;;;0.00;0.00;;;23.10;91.50;226.50;231333.00;;;;5031696;28;20195;-72
2022/08/07 09:12:45;;;;;;;0.00;0.00;;;23.30;91.50;226.50;231333.00;;;;5047652;28;20240;-71
2022/08/07 09:15:38;;;;;;;0.00;0.00;;;23.40;91.40;226.50;231333.00;;;;5051055;28;20194;-71
2022/08/07 09:18:56;;;;;;;0.00;0.00;;;23.30;90.80;226.50;231333.00;;;;5049784;28;20237;-71
2022/08/07 09:21:35;;;;;;;0.00;0.00;;;23.10;91.20;226.50;231333.00;;;;5057757;28;20588;-72
2022/08/07 09:24:44;;;;;;;0.00;0.00;;;23.10;91.00;226.50;231333.00;;;;5046557;28;20214;-71
2022/08/07 09:27:43;;;;;;;0.00;0.00;;;23.30;90.90;226.50;231333.00;;;;5052114;28;20190;-72
2022/08/07 09:30:56;;;;;;;0.00;0.00;;;23.40;90.90;226.50;231333.00;;;;5049104;28;20289;-73
2022/08/07 09:33:48;;;;;;;0.00;0.00;;;23.50;90.60;226.50;231333.00;;;;5031585;28;20203;-72
2022/08/07 09:36:33;;;;;;;0.00;0.00;;;23.70;90.40;226.50;231333.00;;;;5052254;28;20186;-72
2022/08/07 09:39:24;;;;;;;0.00;0.00;;;23.90;90.10;226.50;231333.00;;;;5058194;28;20548;-72
2022/08/07 09:42:39;;;;;;;0.00;0.00;;;23.90;90.30;226.50;231333.00;;;;5047610;28;20336;-71
2022/08/07 09:45:18;;;;;;;0.00;0.00;;;23.90;90.20;226.50;231333.00;;;;5051814;28;20629;-71
2022/08/07 09:48:22;;;;;;;0.00;0.00;;;24.00;89.90;226.50;231333.00;;;;5049647;28;20559;-71
2022/08/07 09:51:16;;;;;;;0.00;0.00;;;24.20;88.90;226.50;231333.00;;;;5048868;28;20210;-73
2022/08/07 09:54:12;;;;;;;0.00;0.00;;;24.30;88.70;226.50;231333.00;;;;5058213;28;20209;-71
2022/08/07 09:57:17;;;;;;;0.00;0.00;;;24.30;88.60;226.50;231333.00;;;;5051005;28;20205;-71
2022/08/07 10:00:07;;;;;;;0.00;0.00;;;24.20;88.30;226.50;231333.00;;;;5055561;28;20205;-71
2022/08/07 10:03:30;;;;;;;0.00;0.00;;;24.20;88.20;226.50;231333.00;;;;5059448;28;20284;-71
2022/08/07 10:06:56;;;;;;;0.00;0.00;;;24.30;87.90;226.50;231333.00;;;;5039685;28;20214;-71
2022/08/07 10:10:18;;;;;;;0.00;0.00;;;24.60;86.90;226.50;231333.00;;;;5052418;28;20190;-72
2022/08/07 10:13:14;;;;;;;0.00;0.00;;;24.90;85.30;226.50;231333.00;;;;5024925;28;20218;-71
2022/08/07 10:16:15;;;;;;;0.00;0.00;;;25.20;85.40;226.50;231333.00;;;;5045353;28;20202;-71
2022/08/07 10:19:20;;;;;;;0.00;0.00;;;25.00;83.80;226.50;231333.00;;;;5049182;28;20228;-71
2022/08/07 10:22:05;;;;;;;0.00;0.00;;;25.10;84.50;226.50;231333.00;;;;5054625;28;20685;-70
2022/08/07 10:25:03;;;;;;;0.00;0.00;;;25.10;83.90;226.50;231333.00;;;;5054533;28;20225;-70
2022/08/07 10:27:52;;;;;;;0.00;0.00;;;24.90;83.60;226.50;231333.00;;;;5053888;28;20198;-73
2022/08/07 10:30:34;;;;;;;0.00;0.00;;;24.50;84.90;226.50;231333.00;;;;5054344;28;20197;-71
2022/08/07 10:33:32;;;;;;;0.00;0.00;;;24.60;85.30;226.50;231333.00;;;;5055526;28;20202;-72
2022/08/07 10:36:48;;;;;;;0.00;0.00;;;24.90;84.30;226.50;231333.00;;;;5048520;28;20187;-71
2022/08/07 10:39:36;;;;;;;0.00;0.00;;;25.10;83.70;226.50;231333.00;;;;5053880;28;20195;-71
2022/08/07 10:42:35;;;;;;;0.00;0.00;;;25.30;82.90;226.50;231333.00;;;;5050842;28;20687;-73
2022/08/07 10:45:18;;;;;;;0.00;0.00;;;25.40;83.40;226.50;231333.00;;;;5054864;28;20260;-70
2022/08/07 10:48:37;;;;;;;0.00;0.00;;;25.70;82.10;226.50;231333.00;;;;5054087;28;20717;-71
2022/08/07 10:51:16;;;;;;;0.00;0.00;;;25.70;81.80;226.50;231333.00;;;;5054585;28;20214;-71
2022/08/07 10:54:14;;;;;;;0.00;0.00;;;25.80;82.00;226.50;231333.00;;;;5054585;28;20267;-71
2022/08/07 10:57:03;;;;;;;0.00;0.00;;;26.20;80.80;226.50;231333.00;;;;5054643;28;20232;-74
2022/08/07 10:59:51;;;;;;;0.00;0.00;;;26.30;80.30;226.50;231333.00;;;;5071408;28;20560;-74
2022/08/07 11:02:29;;;;;;;0.00;0.00;;;25.80;80.30;226.50;231333.00;;;;5064392;28;20197;-71
2022/08/07 11:05:29;;;;;;;0.00;0.00;;;26.10;80.30;226.50;231333.00;;;;5058558;28;20214;-74
2022/08/07 11:08:26;;;;;;;0.00;0.00;;;26.20;79.80;226.50;231333.00;;;;5053699;28;20589;-71
2022/08/07 11:11:05;;;;;;;0.00;0.00;;;26.30;79.60;226.50;231333.00;;;;5054275;28;20269;-71
2022/08/07 11:13:41;;;;;;;0.00;0.00;;;26.40;79.70;226.50;231333.00;;;;5054646;28;20603;-72
2022/08/07 11:16:36;;;;;;;0.00;0.00;;;26.50;80.00;226.50;231333.00;;;;5052758;28;20195;-72
2022/08/07 11:19:13;;;;;;;0.00;0.00;;;26.30;78.30;226.50;231333.00;;;;5061036;28;20194;-72
2022/08/07 11:22:05;;;;;;;0.00;0.00;;;26.30;79.10;226.50;231333.00;;;;5034442;28;20206;-72
2022/08/07 11:24:56;;;;;;;0.00;0.00;;;26.60;78.90;226.50;231333.00;;;;5035490;28;20904;-72
2022/08/07 11:27:37;;;;;;;0.00;0.00;;;27.00;77.80;226.50;231333.00;;;;5054381;28;20194;-73
2022/08/07 11:30:35;;;;;;;0.00;0.00;;;27.10;77.40;226.50;231333.00;;;;5055360;28;20646;-72
2022/08/07 11:33:21;;;;;;;0.00;0.00;;;27.30;77.10;226.50;231333.00;;;;5049916;28;20748;-73
2022/08/07 11:36:24;;;;;;;0.00;0.00;;;27.00;77.20;226.50;231333.00;;;;5058583;28;20189;-72
2022/08/07 11:39:32;;;;;;;0.00;0.00;;;27.20;76.30;226.50;231333.00;;;;5055254;28;20285;-72
2022/08/07 11:42:29;;;;;;;0.00;0.00;;;27.30;76.40;226.50;231333.00;;;;5034246;28;20560;-72
2022/08/07 11:45:15;;;;;;;0.00;0.00;;;27.50;75.00;226.50;231333.00;;;;5040584;28;20226;-72
2022/08/07 11:48:04;;;;;;;0.00;0.00;;;27.70;74.60;226.50;231333.00;;;;5053740;28;20636;-72
2022/08/07 11:51:04;;;;;;;0.00;0.00;;;27.70;74.30;226.50;231333.00;;;;5053795;28;20281;-72
2022/08/07 11:53:52;;;;;;;0.00;0.00;;;27.70;74.60;226.50;231333.00;;;;5053221;28;20253;-72
2022/08/07 11:56:47;;;;;;;0.00;0.00;;;27.50;75.20;226.50;231333.00;;;;5052228;28;20608;-73